TimePST,TemperatureF,Dew PointF,Humidity,Sea Level PressureIn,VisibilityMPH,Wind Direction,Wind SpeedMPH,Gust SpeedMPH,PrecipitationIn,Events,Conditions,WindDirDegrees,DateUTC
12:15 AM,44.6,41.0,87,30.10,10.0,NNW,6.9,-,N/A,,Overcast,340,2013-02-18 08:15:00
12:35 AM,44.6,41.0,87,30.09,10.0,Calm,Calm,-,N/A,,Overcast,0,2013-02-18 08:35:00
12:55 AM,44.6,41.0,87,30.09,10.0,Calm,Calm,-,N/A,,Overcast,0,2013-02-18 08:55:00
1:15 AM,44.6,39.2,81,30.08,10.0,Calm,Calm,-,N/A,,Overcast,0,2013-02-18 09:15:00
1:35 AM,44.6,41.0,87,30.08,10.0,Calm,Calm,-,N/A,,Overcast,0,2013-02-18 09:35:00
1:55 AM,44.6,39.2,81,30.08,10.0,Calm,Calm,-,N/A,,Overcast,0,2013-02-18 09:55:00
2:15 AM,44.6,37.4,76,30.08,10.0,NNW,6.9,-,N/A,,Overcast,330,2013-02-18 10:15:00
2:35 AM,44.6,39.2,81,30.08,10.0,NNW,4.6,-,N/A,,Overcast,340,2013-02-18 10:35:00
2:55 AM,44.6,39.2,81,30.08,10.0,North,5.8,-,N/A,,Overcast,350,2013-02-18 10:55:00
3:15 AM,44.6,39.2,81,30.08,10.0,Calm,Calm,-,N/A,,Overcast,0,2013-02-18 11:15:00
3:35 AM,44.6,39.2,81,30.07,10.0,Calm,Calm,-,N/A,,Overcast,0,2013-02-18 11:35:00
3:55 AM,44.6,39.2,81,30.07,10.0,Calm,Calm,-,N/A,,Overcast,0,2013-02-18 11:55:00
4:35 AM,44.6,37.4,76,30.05,10.0,Calm,Calm,-,N/A,,Overcast,0,2013-02-18 12:35:00
4:55 AM,44.6,37.4,76,30.04,10.0,Calm,Calm,-,N/A,,Overcast,0,2013-02-18 12:55:00
5:15 AM,42.8,39.2,87,30.05,10.0,Calm,Calm,-,N/A,,Overcast,0,2013-02-18 13:15:00
5:35 AM,42.8,39.2,87,30.05,10.0,Calm,Calm,-,N/A,,Overcast,0,2013-02-18 13:35:00
5:55 AM,42.8,39.2,87,30.06,10.0,Calm,Calm,-,N/A,,Overcast,0,2013-02-18 13:55:00
6:35 AM,42.8,39.2,87,30.06,10.0,Calm,Calm,-,N/A,,Overcast,0,2013-02-18 14:35:00
6:55 AM,41.0,41.0,100,30.07,10.0,NNW,3.5,-,N/A,,Overcast,340,2013-02-18 14:55:00
7:15 AM,42.8,41.0,93,30.07,10.0,NW,3.5,-,N/A,,Overcast,320,2013-02-18 15:15:00
7:55 AM,42.8,41.0,93,30.07,10.0,Calm,Calm,-,N/A,,Overcast,0,2013-02-18 15:55:00
8:15 AM,42.8,41.0,93,30.07,10.0,Calm,Calm,-,N/A,,Overcast,0,2013-02-18 16:15:00
8:35 AM,42.8,41.0,93,30.08,10.0,Calm,Calm,-,N/A,,Overcast,0,2013-02-18 16:35:00
8:55 AM,44.6,41.0,87,30.08,10.0,Calm,Calm,-,N/A,,Overcast,0,2013-02-18 16:55:00
9:15 AM,44.6,41.0,87,30.08,10.0,Calm,Calm,-,N/A,,Overcast,0,2013-02-18 17:15:00
9:35 AM,44.6,42.8,93,30.08,10.0,NW,5.8,-,N/A,,Overcast,310,2013-02-18 17:35:00
9:55 AM,44.6,42.8,93,30.08,10.0,Calm,Calm,-,N/A,,Overcast,0,2013-02-18 17:55:00
10:15 AM,46.4,41.0,81,30.07,10.0,NE,3.5,-,N/A,,Overcast,40,2013-02-18 18:15:00
10:35 AM,48.2,39.2,71,30.07,10.0,North,4.6,-,N/A,,Mostly Cloudy,10,2013-02-18 18:35:00
10:55 AM,48.2,37.4,66,30.06,10.0,North,3.5,-,N/A,,Mostly Cloudy,10,2013-02-18 18:55:00
11:15 AM,48.2,37.4,66,30.06,10.0,Calm,Calm,-,N/A,,Mostly Cloudy,0,2013-02-18 19:15:00
11:35 AM,48.2,35.6,62,30.05,10.0,North,8.1,-,N/A,,Mostly Cloudy,350,2013-02-18 19:35:00
11:55 AM,48.2,37.4,66,30.04,10.0,Calm,Calm,-,N/A,,Overcast,0,2013-02-18 19:55:00
12:15 PM,46.4,41.0,81,30.04,10.0,NW,12.7,-,N/A,,Overcast,310,2013-02-18 20:15:00
12:35 PM,46.4,41.0,81,30.03,10.0,WNW,9.2,-,N/A,,Overcast,300,2013-02-18 20:35:00
12:55 PM,46.4,41.0,81,30.02,10.0,WNW,12.7,-,N/A,,Scattered Clouds,300,2013-02-18 20:55:00
1:15 PM,46.4,41.0,81,30.02,10.0,NW,11.5,-,N/A,,Scattered Clouds,310,2013-02-18 21:15:00
1:35 PM,46.4,42.8,87,30.02,10.0,NW,9.2,-,N/A,,Scattered Clouds,310,2013-02-18 21:35:00
1:55 PM,46.4,39.2,76,30.01,10.0,NNW,6.9,-,N/A,,Scattered Clouds,340,2013-02-18 21:55:00
2:15 PM,46.4,41.0,81,30.02,10.0,NW,8.1,-,N/A,,Mostly Cloudy,320,2013-02-18 22:15:00
2:35 PM,44.6,41.0,87,30.02,8.0,North,9.2,-,N/A,,Scattered Clouds,360,2013-02-18 22:35:00
3:15 PM,44.6,41.0,87,30.01,10.0,WNW,3.5,-,N/A,,Mostly Cloudy,290,2013-02-18 23:15:00
3:35 PM,46.4,44.6,93,30.01,10.0,WNW,6.9,-,N/A,,Mostly Cloudy,290,2013-02-18 23:35:00
3:55 PM,46.4,41.0,81,30.01,10.0,WNW,8.1,-,N/A,,Overcast,300,2013-02-18 23:55:00
4:15 PM,44.6,41.0,87,30.00,10.0,NW,11.5,-,N/A,,Overcast,320,2013-02-19 00:15:00
4:35 PM,46.4,41.0,81,30.00,10.0,NW,10.4,-,N/A,,Overcast,320,2013-02-19 00:35:00
4:55 PM,44.6,41.0,87,30.00,10.0,NNW,5.8,-,N/A,,Overcast,330,2013-02-19 00:55:00
5:15 PM,44.6,41.0,87,29.99,10.0,Calm,Calm,-,N/A,,Overcast,0,2013-02-19 01:15:00
5:35 PM,44.6,42.8,93,29.98,10.0,NW,5.8,-,N/A,,Overcast,310,2013-02-19 01:35:00
5:55 PM,44.6,42.8,93,29.98,10.0,NW,3.5,-,N/A,,Overcast,310,2013-02-19 01:55:00
6:15 PM,44.6,42.8,93,29.98,10.0,Calm,Calm,-,N/A,,Overcast,0,2013-02-19 02:15:00
6:35 PM,44.6,42.8,93,29.98,10.0,Calm,Calm,-,N/A,,Overcast,0,2013-02-19 02:35:00
6:55 PM,44.6,42.8,93,29.97,10.0,Calm,Calm,-,N/A,,Overcast,0,2013-02-19 02:55:00
7:15 PM,44.6,42.8,93,29.97,10.0,Calm,Calm,-,N/A,,Overcast,0,2013-02-19 03:15:00
7:35 PM,42.8,42.8,100,29.97,10.0,Calm,Calm,-,N/A,,Overcast,0,2013-02-19 03:35:00
7:55 PM,42.8,42.8,100,29.97,10.0,Calm,Calm,-,N/A,,Scattered Clouds,0,2013-02-19 03:55:00
8:15 PM,41.0,41.0,100,29.96,10.0,Calm,Calm,-,N/A,,Clear,0,2013-02-19 04:15:00
8:35 PM,41.0,41.0,100,29.96,10.0,Calm,Calm,-,N/A,,Clear,0,2013-02-19 04:35:00
8:55 PM,39.2,39.2,100,29.95,10.0,Calm,Calm,-,N/A,,Scattered Clouds,0,2013-02-19 04:55:00
9:15 PM,39.2,39.2,100,29.95,10.0,ESE,8.1,-,N/A,,Overcast,120,2013-02-19 05:15:00
9:35 PM,39.2,39.2,100,29.95,10.0,Calm,Calm,-,N/A,,Overcast,0,2013-02-19 05:35:00
9:55 PM,39.2,39.2,100,29.94,10.0,Calm,Calm,-,N/A,,Overcast,0,2013-02-19 05:55:00
10:15 PM,41.0,41.0,100,29.93,10.0,ESE,8.1,-,N/A,,Overcast,120,2013-02-19 06:15:00
10:35 PM,39.2,39.2,100,29.93,10.0,ESE,8.1,-,N/A,,Overcast,120,2013-02-19 06:35:00
10:55 PM,39.2,39.2,100,29.93,8.0,SE,6.9,-,N/A,,Overcast,140,2013-02-19 06:55:00
11:15 PM,41.0,41.0,100,29.92,10.0,SSE,6.9,-,N/A,,Overcast,150,2013-02-19 07:15:00
11:35 PM,41.0,41.0,100,29.91,10.0,SE,6.9,-,N/A,,Overcast,130,2013-02-19 07:35:00
11:55 PM,41.0,41.0,100,29.91,10.0,SE,8.1,-,N/A,,Overcast,130,2013-02-19 07:55:00